createdAt,value
2022-12-03T00:00:16.141Z,19.38
2022-12-03T00:02:44.598Z,19.75
2022-12-03T00:05:13.614Z,20.25
2022-12-03T00:07:43.397Z,18.45
2022-12-03T00:10:12.182Z,19.60
2022-12-03T00:12:40.471Z,19.13
2022-12-03T00:15:11.733Z,20.38
2022-12-03T00:17:40.039Z,19.73
2022-12-03T00:20:10.748Z,20.48
2022-12-03T00:22:39.079Z,21.70
2022-12-03T00:25:10.932Z,20.65
2022-12-03T00:27:39.154Z,21.50
2022-12-03T00:30:10.042Z,21.08
2022-12-03T00:32:38.664Z,19.58
2022-12-03T00:35:08.053Z,20.30
2022-12-03T00:37:36.340Z,20.17
2022-12-03T00:40:05.519Z,20.40
2022-12-03T00:42:35.757Z,20.70
2022-12-03T00:45:07.362Z,19.98
2022-12-03T00:47:36.126Z,21.10
2022-12-03T00:50:04.512Z,20.75
2022-12-03T00:52:32.819Z,21.55
2022-12-03T00:55:01.044Z,21.73
2022-12-03T00:57:29.351Z,20.67
2022-12-03T00:59:59.136Z,20.65
2022-12-03T01:02:27.382Z,22.70
2022-12-03T01:04:56.100Z,21.13
2022-12-03T01:07:24.873Z,21.20
2022-12-03T01:09:53.253Z,20.33
2022-12-03T01:12:21.618Z,22.58
2022-12-03T01:14:49.994Z,21.73
2022-12-03T01:17:19.666Z,21.63
2022-12-03T01:19:48.585Z,22.83
2022-12-03T01:22:17.025Z,21.80
2022-12-03T01:24:45.290Z,22.50
2022-12-03T01:27:13.633Z,23.10
2022-12-03T01:29:42.048Z,23.02
2022-12-03T01:32:19.535Z,22.88
2022-12-03T01:34:52.042Z,23.00
2022-12-03T01:37:22.664Z,22.88
2022-12-03T01:39:51.146Z,23.15
2022-12-03T01:42:23.150Z,23.05
2022-12-03T01:44:54.124Z,24.58
2022-12-03T01:47:27.592Z,23.27
2022-12-03T01:50:04.721Z,24.25
2022-12-03T01:52:37.582Z,23.98
2022-12-03T01:55:13.185Z,25.05
2022-12-03T01:57:45.136Z,23.60
2022-12-03T02:00:16.556Z,23.95
2022-12-03T02:02:44.906Z,24.02
2022-12-03T02:05:21.388Z,22.88
2022-12-03T02:07:50.155Z,25.20
2022-12-03T02:10:23.987Z,24.10
2022-12-03T02:12:55.941Z,25.38
2022-12-03T02:15:25.104Z,25.65
2022-12-03T02:17:57.162Z,26.83
2022-12-03T02:20:26.945Z,27.08
2022-12-03T02:23:06.651Z,24.58
2022-12-03T02:25:38.477Z,26.75
2022-12-03T02:28:09.640Z,26.80
2022-12-03T02:30:38.496Z,25.42
2022-12-03T02:33:07.048Z,25.38
2022-12-03T02:35:37.853Z,24.90
2022-12-03T02:38:13.987Z,26.30
2022-12-03T02:40:45.119Z,24.65
2022-12-03T02:43:14.985Z,26.25
2022-12-03T02:45:46.682Z,25.42
2022-12-03T02:48:19.236Z,24.83
2022-12-03T02:50:53.096Z,25.42
2022-12-03T02:53:25.901Z,26.02
2022-12-03T02:55:58.074Z,25.80
2022-12-03T02:58:28.474Z,25.95
2022-12-03T03:00:57.630Z,26.65
2022-12-03T03:03:29.031Z,26.05
2022-12-03T03:05:58.468Z,26.25
2022-12-03T03:08:28.104Z,24.65
2022-12-03T03:10:59.746Z,26.08
2022-12-03T03:13:28.179Z,26.23
2022-12-03T03:15:57.333Z,26.98
2022-12-03T03:18:26.611Z,26.63
2022-12-03T03:20:55.461Z,25.70
2022-12-03T03:23:25.358Z,25.02
2022-12-03T03:25:59.079Z,26.40
2022-12-03T03:28:30.121Z,28.05
2022-12-03T03:30:59.636Z,25.10
2022-12-03T03:33:28.379Z,25.50
2022-12-03T03:35:56.814Z,27.42
2022-12-03T03:38:25.676Z,26.30
2022-12-03T03:40:54.839Z,26.33
2022-12-03T03:43:25.656Z,27.60
2022-12-03T03:45:55.363Z,26.70
2022-12-03T03:48:24.518Z,27.15
2022-12-03T03:50:53.293Z,26.52
2022-12-03T03:53:23.294Z,27.40
2022-12-03T03:55:52.034Z,28.38
2022-12-03T03:58:20.349Z,27.00
2022-12-03T04:00:50.693Z,26.27
2022-12-03T04:03:18.964Z,28.05
2022-12-03T04:05:47.667Z,27.58
2022-12-03T04:08:16.132Z,27.33
2022-12-03T04:11:02.121Z,29.00
2022-12-03T04:13:30.486Z,28.40
2022-12-03T04:16:00.291Z,28.63
2022-12-03T04:18:46.882Z,28.05
2022-12-03T04:21:35.111Z,27.58
2022-12-03T04:24:04.691Z,27.92
2022-12-03T04:26:50.648Z,28.60
2022-12-03T04:29:18.972Z,29.02
2022-12-03T04:32:06.666Z,27.80
2022-12-03T04:34:52.790Z,27.58
2022-12-03T04:37:21.590Z,27.58
2022-12-03T04:39:49.969Z,26.20
2022-12-03T04:42:18.403Z,28.13
2022-12-03T04:44:46.735Z,26.92
2022-12-03T04:47:19.505Z,27.40
2022-12-03T04:49:50.199Z,28.15
2022-12-03T04:52:20.927Z,27.35
2022-12-03T04:54:49.774Z,28.33
2022-12-03T04:57:17.964Z,27.98
2022-12-03T04:59:46.321Z,26.88
2022-12-03T05:02:16.068Z,27.42
2022-12-03T05:04:44.778Z,27.73
2022-12-03T05:07:13.062Z,28.67
2022-12-03T05:09:41.476Z,27.25
2022-12-03T05:12:10.450Z,27.48
2022-12-03T05:14:38.761Z,27.60
2022-12-03T05:17:07.127Z,27.13
2022-12-03T05:19:54.951Z,26.85
2022-12-03T05:22:23.375Z,26.65
2022-12-03T05:24:51.998Z,28.02
2022-12-03T05:27:23.938Z,28.40
2022-12-03T05:29:53.288Z,27.17
2022-12-03T05:32:21.800Z,27.15
2022-12-03T05:34:51.785Z,27.27
2022-12-03T05:37:20.353Z,27.73
2022-12-03T05:39:48.603Z,27.02
2022-12-03T05:42:34.376Z,26.23
2022-12-03T05:45:02.706Z,25.88
2022-12-03T05:47:31.093Z,27.17
2022-12-03T05:50:00.812Z,26.30
2022-12-03T05:52:29.438Z,27.92
2022-12-03T05:54:57.681Z,27.60
2022-12-03T05:57:26.069Z,27.08
2022-12-03T05:59:54.312Z,26.92
2022-12-03T06:02:22.824Z,27.40
2022-12-03T06:04:51.365Z,28.25
2022-12-03T06:07:21.126Z,27.67
2022-12-03T06:09:49.435Z,26.65
2022-12-03T06:12:17.648Z,25.80
2022-12-03T06:14:46.501Z,26.50
2022-12-03T06:17:14.813Z,26.05
2022-12-03T06:19:43.154Z,24.55
2022-12-03T06:22:11.486Z,25.00
2022-12-03T06:24:41.165Z,24.55
2022-12-03T06:27:09.688Z,24.10
2022-12-03T06:29:38.240Z,23.70
2022-12-03T06:32:07.815Z,23.50
2022-12-03T06:34:36.330Z,23.45
2022-12-03T06:37:04.736Z,24.55
2022-12-03T06:39:33.074Z,22.73
2022-12-03T06:42:02.870Z,23.77
2022-12-03T06:44:34.248Z,23.60
2022-12-03T06:47:03.673Z,23.90
2022-12-03T06:49:32.322Z,24.95
2022-12-03T06:52:00.917Z,24.60
2022-12-03T06:54:29.229Z,24.88
2022-12-03T06:56:57.937Z,25.13
2022-12-03T06:59:27.856Z,25.33
2022-12-03T07:01:56.514Z,23.75
2022-12-03T07:04:24.825Z,25.08
2022-12-03T07:06:53.031Z,25.42
2022-12-03T07:09:21.272Z,24.40
2022-12-03T07:11:49.907Z,25.23
2022-12-03T07:14:18.139Z,24.08
2022-12-03T07:16:48.179Z,24.60
2022-12-03T07:19:21.095Z,23.10
2022-12-03T07:21:49.777Z,24.58
2022-12-03T07:24:17.989Z,23.60
2022-12-03T07:26:46.217Z,24.10
2022-12-03T07:29:17.119Z,23.35
2022-12-03T07:31:45.579Z,23.83
2022-12-03T07:34:15.549Z,24.58
2022-12-03T07:36:43.810Z,24.83
2022-12-03T07:39:12.030Z,23.00
2022-12-03T07:41:40.268Z,22.58
2022-12-03T07:44:14.019Z,22.63
2022-12-03T07:46:43.329Z,23.60
2022-12-03T07:49:13.117Z,23.85
2022-12-03T07:51:43.014Z,22.83
2022-12-03T07:54:11.299Z,24.02
2022-12-03T07:56:39.523Z,23.27
2022-12-03T07:59:07.958Z,25.08
2022-12-03T08:01:36.313Z,22.92
2022-12-03T08:04:04.681Z,24.20
2022-12-03T08:06:33.104Z,23.90
2022-12-03T08:09:02.775Z,24.10
2022-12-03T08:11:31.137Z,25.58
2022-12-03T08:14:00.388Z,24.65
2022-12-03T08:16:31.604Z,26.52
2022-12-03T08:18:59.895Z,26.98
2022-12-03T08:21:35.137Z,25.58
2022-12-03T08:24:16.059Z,25.73
2022-12-03T08:26:45.903Z,27.00
2022-12-03T08:29:17.121Z,26.48
2022-12-03T08:31:52.179Z,26.17
2022-12-03T08:34:22.720Z,26.40
2022-12-03T08:36:53.849Z,27.05
2022-12-03T08:39:33.339Z,27.80
2022-12-03T08:42:29.130Z,27.23
2022-12-03T08:44:57.955Z,27.42
2022-12-03T08:47:26.908Z,27.30
2022-12-03T08:49:59.895Z,26.30
2022-12-03T08:52:34.049Z,26.92
2022-12-03T08:55:33.667Z,27.13
2022-12-03T08:58:02.065Z,26.63
2022-12-03T09:00:30.402Z,26.50
2022-12-03T09:03:02.408Z,27.45
2022-12-03T09:05:33.485Z,26.98
2022-12-03T09:08:01.968Z,27.10
2022-12-03T09:10:31.713Z,25.98
2022-12-03T09:13:00.015Z,27.75
2022-12-03T09:15:29.540Z,28.83
2022-12-03T09:17:57.839Z,28.13
2022-12-03T09:20:26.124Z,28.70
2022-12-03T09:22:54.406Z,28.10
2022-12-03T09:25:22.738Z,28.55
2022-12-03T09:27:52.860Z,27.48
2022-12-03T09:30:21.400Z,27.00
2022-12-03T09:32:49.958Z,27.85
2022-12-03T09:35:18.517Z,28.20
2022-12-03T09:37:47.113Z,28.90
2022-12-03T09:40:16.078Z,27.20
2022-12-03T09:42:44.505Z,28.65
2022-12-03T09:45:16.650Z,28.27
2022-12-03T09:47:49.140Z,29.80
2022-12-03T09:50:22.468Z,27.65
2022-12-03T09:52:54.849Z,28.40
2022-12-03T09:55:27.113Z,30.02
2022-12-03T09:57:56.745Z,29.27
2022-12-03T10:00:30.571Z,29.75
2022-12-03T10:03:03.278Z,30.60
2022-12-03T10:05:32.203Z,30.42
2022-12-03T10:08:07.717Z,30.55
2022-12-03T10:10:38.259Z,30.67
2022-12-03T10:13:08.380Z,31.08
2022-12-03T10:15:38.632Z,31.15
2022-12-03T10:18:19.640Z,31.67
2022-12-03T10:20:49.116Z,30.58
2022-12-03T10:23:23.299Z,32.63
2022-12-03T10:25:54.524Z,30.95
2022-12-03T10:28:34.492Z,33.10
2022-12-03T10:31:07.382Z,31.33
2022-12-03T10:33:39.260Z,33.55
2022-12-03T10:36:21.494Z,31.73
2022-12-03T10:39:12.804Z,34.17
2022-12-03T10:41:42.766Z,32.13
2022-12-03T10:44:19.608Z,33.55
2022-12-03T10:47:08.242Z,32.72
2022-12-03T10:49:36.963Z,30.35
2022-12-03T10:52:06.212Z,34.13
2022-12-03T10:54:36.430Z,33.55
2022-12-03T10:57:07.689Z,32.88
2022-12-03T10:59:43.977Z,32.75
2022-12-03T11:02:22.143Z,32.95
2022-12-03T11:04:51.114Z,30.92
2022-12-03T11:07:22.906Z,34.42
2022-12-03T11:09:55.452Z,31.88
2022-12-03T11:12:27.418Z,31.58
2022-12-03T11:15:07.854Z,33.17
2022-12-03T11:18:00.759Z,32.75
2022-12-03T11:21:12.099Z,36.05
2022-12-03T11:24:18.486Z,35.05
2022-12-03T11:27:19.008Z,35.47
2022-12-03T11:29:54.214Z,37.13
2022-12-03T11:33:09.858Z,35.90
2022-12-03T11:36:16.293Z,35.55
2022-12-03T11:38:57.250Z,33.40
2022-12-03T11:41:30.479Z,34.50
2022-12-03T11:44:20.257Z,31.58
2022-12-03T11:46:49.624Z,31.30
2022-12-03T11:49:32.613Z,30.92
2022-12-03T11:52:04.263Z,28.52
2022-12-03T11:54:36.207Z,28.73
2022-12-03T11:57:04.782Z,28.10
2022-12-03T11:59:33.148Z,27.75
2022-12-03T12:02:01.414Z,28.00
2022-12-03T12:04:35.557Z,27.50
2022-12-03T12:07:04.021Z,26.77
2022-12-03T12:09:55.578Z,26.40
2022-12-03T12:12:31.994Z,27.75
2022-12-03T12:15:01.457Z,27.02
2022-12-03T12:17:35.458Z,27.58
2022-12-03T12:20:27.957Z,27.45
2022-12-03T12:22:56.889Z,27.05
2022-12-03T12:25:41.397Z,30.15
2022-12-03T12:28:10.436Z,28.40
2022-12-03T12:30:38.776Z,28.60
2022-12-03T12:33:23.046Z,30.10
2022-12-03T12:35:53.003Z,30.15
2022-12-03T12:38:22.681Z,28.65
2022-12-03T12:40:52.301Z,30.80
2022-12-03T12:43:25.242Z,31.08
2022-12-03T12:45:55.673Z,29.52
2022-12-03T12:48:27.666Z,29.20
2022-12-03T12:51:07.664Z,29.15
2022-12-03T12:53:38.199Z,29.85
2022-12-03T12:56:20.490Z,29.30
2022-12-03T12:58:49.121Z,28.83
2022-12-03T13:01:22.906Z,31.10
2022-12-03T13:03:53.770Z,30.27
2022-12-03T13:06:28.166Z,34.80
2022-12-03T13:08:56.798Z,32.95
2022-12-03T13:11:41.266Z,31.75
2022-12-03T13:14:18.442Z,30.83
2022-12-03T13:16:48.241Z,29.42
2022-12-03T13:19:26.624Z,29.48
2022-12-03T13:21:57.909Z,28.17
2022-12-03T13:24:34.089Z,27.25
2022-12-03T13:27:10.808Z,29.48
2022-12-03T13:29:39.733Z,28.90
2022-12-03T13:32:15.778Z,28.75
2022-12-03T13:34:44.971Z,27.88
2022-12-03T13:37:19.304Z,27.13
2022-12-03T13:39:50.978Z,25.30
2022-12-03T13:42:42.491Z,25.63
2022-12-03T13:45:33.107Z,25.27
2022-12-03T13:48:03.626Z,24.83
2022-12-03T13:50:36.465Z,25.90
2022-12-03T13:53:20.723Z,24.55
2022-12-03T13:55:51.008Z,25.08
2022-12-03T13:58:19.306Z,24.27
2022-12-03T14:00:48.056Z,24.65
2022-12-03T14:03:16.428Z,22.92
2022-12-03T14:05:44.790Z,23.10
2022-12-03T14:08:14.819Z,22.58
2022-12-03T14:10:45.659Z,21.23
2022-12-03T14:13:14.170Z,21.73
2022-12-03T14:15:42.424Z,23.00
2022-12-03T14:18:10.991Z,22.45
2022-12-03T14:20:39.210Z,23.77
2022-12-03T14:23:07.558Z,25.02
2022-12-03T14:25:37.176Z,24.08
2022-12-03T14:28:08.760Z,23.35
2022-12-03T14:30:37.179Z,24.08
2022-12-03T14:33:05.806Z,22.73
2022-12-03T14:35:34.182Z,24.02
2022-12-03T14:38:02.548Z,22.10
2022-12-03T14:40:30.822Z,21.73
2022-12-03T14:43:00.684Z,20.40
2022-12-03T14:45:30.045Z,21.50
2022-12-03T14:47:58.341Z,20.05
2022-12-03T14:50:26.627Z,20.38
2022-12-03T14:52:54.813Z,20.77
2022-12-03T14:55:23.361Z,22.45
2022-12-03T14:57:51.617Z,20.75
2022-12-03T15:00:22.599Z,21.05
2022-12-03T15:02:50.902Z,20.00
2022-12-03T15:05:26.399Z,20.38
2022-12-03T15:07:56.811Z,20.77
2022-12-03T15:10:25.625Z,21.33
2022-12-03T15:12:54.222Z,20.90
2022-12-03T15:15:23.981Z,19.52
2022-12-03T15:17:52.178Z,24.05
2022-12-03T15:20:20.548Z,22.00
2022-12-03T15:22:49.069Z,19.50
2022-12-03T15:25:24.227Z,21.27
2022-12-03T15:27:53.238Z,23.58
2022-12-03T15:30:23.384Z,22.55
2022-12-03T15:32:51.736Z,21.35
2022-12-03T15:35:20.108Z,22.05
2022-12-03T15:37:48.587Z,23.17
2022-12-03T15:40:17.182Z,22.23
2022-12-03T15:42:45.848Z,23.17
2022-12-03T15:45:15.562Z,24.40
2022-12-03T15:47:46.075Z,24.42
2022-12-03T15:50:15.081Z,25.13
2022-12-03T15:52:43.577Z,25.33
2022-12-03T15:55:12.979Z,25.90
2022-12-03T15:57:41.304Z,26.58
2022-12-03T16:00:12.437Z,26.92
2022-12-03T16:02:41.051Z,29.30
2022-12-03T16:05:13.943Z,27.00
2022-12-03T16:07:42.497Z,31.08
2022-12-03T16:10:12.821Z,28.67
2022-12-03T16:12:41.212Z,28.38
2022-12-03T16:15:10.779Z,27.33
2022-12-03T16:17:39.078Z,27.17
2022-12-03T16:20:10.646Z,28.90
2022-12-03T16:22:39.016Z,29.65
2022-12-03T16:25:08.376Z,28.35
2022-12-03T16:27:38.050Z,29.45
2022-12-03T16:30:09.041Z,28.83
2022-12-03T16:32:37.424Z,28.95
2022-12-03T16:35:06.649Z,29.33
2022-12-03T16:37:36.782Z,29.40
2022-12-03T16:40:06.086Z,27.27
2022-12-03T16:42:34.740Z,29.08
2022-12-03T16:45:23.131Z,30.95
2022-12-03T16:47:51.482Z,30.92
2022-12-03T16:50:25.892Z,30.40
2022-12-03T16:52:58.885Z,32.38
2022-12-03T16:55:27.234Z,33.72
2022-12-03T16:57:55.474Z,33.42
2022-12-03T17:00:25.915Z,34.55
2022-12-03T17:02:54.312Z,34.45
2022-12-03T17:05:23.195Z,35.33
2022-12-03T17:07:51.692Z,34.45
2022-12-03T17:10:21.591Z,33.80
2022-12-03T17:15:38.934Z,33.92
2022-12-03T17:18:08.254Z,33.45
2022-12-03T17:20:37.326Z,33.13
2022-12-03T17:23:05.920Z,31.83
2022-12-03T17:25:35.796Z,31.08
2022-12-03T17:28:04.351Z,30.67
2022-12-03T17:30:32.839Z,31.10
2022-12-03T17:33:01.217Z,32.88
2022-12-03T17:35:29.698Z,31.05
2022-12-03T17:37:58.321Z,30.23
2022-12-03T17:40:26.632Z,30.65
2022-12-03T17:42:56.257Z,31.70
2022-12-03T17:45:24.664Z,31.60
2022-12-03T17:47:53.013Z,32.13
2022-12-03T17:50:21.442Z,31.80
2022-12-03T17:52:49.917Z,30.52
2022-12-03T17:55:28.144Z,30.90
2022-12-03T17:58:03.651Z,31.02
2022-12-03T18:00:32.350Z,31.73
2022-12-03T18:03:00.696Z,31.17
2022-12-03T18:05:29.049Z,31.10
2022-12-03T18:07:57.561Z,31.08
2022-12-03T18:10:25.913Z,30.92
2022-12-03T18:12:59.903Z,32.08
2022-12-03T18:15:32.020Z,30.25
2022-12-03T18:18:00.371Z,31.67
2022-12-03T18:20:28.927Z,30.17
2022-12-03T18:22:58.726Z,31.20
2022-12-03T18:25:28.056Z,29.90
2022-12-03T18:27:56.486Z,30.13
2022-12-03T18:30:25.124Z,29.60
2022-12-03T18:32:54.876Z,29.40
2022-12-03T18:35:23.167Z,29.45
2022-12-03T18:37:52.111Z,30.08
2022-12-03T18:40:23.919Z,29.95
2022-12-03T18:42:52.210Z,30.02
2022-12-03T18:45:20.813Z,30.13
2022-12-03T18:47:49.548Z,30.63
2022-12-03T18:50:19.942Z,30.15
2022-12-03T18:52:48.237Z,29.75
2022-12-03T18:55:19.784Z,31.10
2022-12-03T18:57:48.012Z,31.60
2022-12-03T19:00:17.615Z,31.13
2022-12-03T19:05:37.184Z,29.40
2022-12-03T19:08:13.839Z,31.50
2022-12-03T19:10:43.085Z,31.83
2022-12-03T19:13:11.769Z,35.35
2022-12-03T19:15:40.580Z,33.53
2022-12-03T19:18:09.052Z,34.78
2022-12-03T19:20:41.867Z,34.53
2022-12-03T19:23:10.667Z,35.35
2022-12-03T19:25:38.879Z,36.67
2022-12-03T19:28:07.552Z,37.08
2022-12-03T19:30:36.145Z,37.28
2022-12-03T19:33:04.579Z,37.55
2022-12-03T19:35:33.538Z,35.83
2022-12-03T19:38:03.629Z,34.15
2022-12-03T19:40:32.624Z,35.45
2022-12-03T19:43:01.137Z,35.83
2022-12-03T19:45:29.441Z,35.63
2022-12-03T19:47:57.803Z,35.72
2022-12-03T19:50:26.112Z,33.42
2022-12-03T19:52:54.374Z,35.85
2022-12-03T19:55:24.219Z,35.10
2022-12-03T19:57:52.742Z,34.25
2022-12-03T20:00:21.533Z,34.80
2022-12-03T20:02:51.291Z,36.95
2022-12-03T20:05:19.783Z,35.35
2022-12-03T20:07:48.101Z,33.80
2022-12-03T20:10:16.592Z,34.72
2022-12-03T20:12:46.310Z,36.20
2022-12-03T20:15:15.412Z,34.75
2022-12-03T20:17:43.741Z,36.67
2022-12-03T20:20:12.980Z,33.20
2022-12-03T20:22:41.297Z,36.22
2022-12-03T20:25:10.894Z,35.63
2022-12-03T20:27:39.894Z,36.45
2022-12-03T20:30:11.636Z,35.70
2022-12-03T20:32:45.022Z,36.50
2022-12-03T20:35:13.868Z,35.28
2022-12-03T20:37:42.578Z,37.55
2022-12-03T20:40:12.034Z,35.58
2022-12-03T20:42:40.265Z,35.30
2022-12-03T20:45:11.896Z,38.58
2022-12-03T20:47:40.200Z,36.55
2022-12-03T20:50:10.103Z,36.60
2022-12-03T20:52:38.479Z,36.88
2022-12-03T20:55:07.797Z,37.13
2022-12-03T20:57:36.093Z,37.33
2022-12-03T21:00:06.067Z,38.45
2022-12-03T21:02:36.219Z,38.17
2022-12-03T21:05:04.877Z,37.25
2022-12-03T21:07:33.226Z,37.60
2022-12-03T21:10:01.452Z,38.33
2022-12-03T21:12:29.727Z,38.53
2022-12-03T21:14:57.984Z,37.97
2022-12-03T21:17:26.398Z,37.03
2022-12-03T21:19:56.722Z,38.78
2022-12-03T21:22:25.317Z,37.53
2022-12-03T21:24:53.511Z,38.60
2022-12-03T21:27:22.171Z,37.38
2022-12-03T21:29:51.027Z,37.30
2022-12-03T21:32:19.513Z,37.88
2022-12-03T21:34:47.986Z,37.95
2022-12-03T21:37:17.765Z,38.00
2022-12-03T21:39:46.076Z,37.13
2022-12-03T21:42:19.409Z,37.53
2022-12-03T21:45:02.865Z,36.97
2022-12-03T21:47:36.941Z,39.25
2022-12-03T21:50:08.802Z,35.55
2022-12-03T21:52:38.605Z,37.08
2022-12-03T21:55:07.876Z,38.33
2022-12-03T21:57:38.379Z,38.13
2022-12-03T22:00:09.655Z,37.03
2022-12-03T22:02:40.387Z,37.30
2022-12-03T22:05:10.794Z,37.05
2022-12-03T22:07:41.654Z,37.50
2022-12-03T22:10:12.420Z,37.80
2022-12-03T22:12:41.976Z,35.80
2022-12-03T22:15:18.504Z,37.97
2022-12-03T22:17:48.084Z,36.95
2022-12-03T22:20:16.383Z,36.78
2022-12-03T22:22:46.095Z,36.78
2022-12-03T22:25:14.418Z,36.45
2022-12-03T22:27:45.519Z,37.45
2022-12-03T22:30:14.329Z,37.08
2022-12-03T22:32:42.631Z,36.15
2022-12-03T22:35:11.140Z,36.58
2022-12-03T22:37:39.398Z,36.08
2022-12-03T22:40:10.764Z,35.70
2022-12-03T22:42:38.975Z,36.17
2022-12-03T22:45:08.855Z,37.05
2022-12-03T22:47:37.215Z,36.58
2022-12-03T22:50:06.658Z,35.55
2022-12-03T22:52:35.195Z,34.88
2022-12-03T22:55:03.529Z,34.72
2022-12-03T22:57:33.825Z,35.38
2022-12-03T23:00:02.078Z,37.08
2022-12-03T23:02:30.347Z,36.35
2022-12-03T23:04:58.583Z,35.13
2022-12-03T23:07:26.893Z,35.22
2022-12-03T23:09:55.620Z,35.55
2022-12-03T23:12:24.103Z,36.25
2022-12-03T23:14:55.889Z,35.10
2022-12-03T23:17:24.130Z,34.35
2022-12-03T23:19:52.563Z,37.45
2022-12-03T23:22:21.072Z,34.97
2022-12-03T23:24:49.659Z,36.13
2022-12-03T23:27:17.893Z,36.42
2022-12-03T23:29:46.172Z,35.15
2022-12-03T23:32:16.015Z,34.65
2022-12-03T23:34:44.326Z,35.22
2022-12-03T23:37:12.712Z,36.17
2022-12-03T23:39:41.165Z,36.22
2022-12-03T23:42:09.599Z,36.50
2022-12-03T23:44:37.837Z,37.15
2022-12-03T23:47:06.247Z,35.90
2022-12-03T23:49:36.257Z,36.75
2022-12-03T23:52:04.607Z,36.35
2022-12-03T23:54:32.947Z,37.38
2022-12-03T23:57:01.331Z,38.47
2022-12-03T23:59:29.638Z,38.38
